sensor_id;sensor_type;location;lat;lon;timestamp;temperature;humidity
67899;DHT22;54699;51.796;10.956;2022-08-03T00:00:16;25.10;41.90
67899;DHT22;54699;51.796;10.956;2022-08-03T00:02:43;25.10;42.10
67899;DHT22;54699;51.796;10.956;2022-08-03T00:05:11;25.10;42.10
67899;DHT22;54699;51.796;10.956;2022-08-03T00:07:38;25.10;42.10
67899;DHT22;54699;51.796;10.956;2022-08-03T00:10:05;25.10;42.10
67899;DHT22;54699;51.796;10.956;2022-08-03T00:12:32;25.10;42.30
67899;DHT22;54699;51.796;10.956;2022-08-03T00:15:00;25.10;42.40
67899;DHT22;54699;51.796;10.956;2022-08-03T00:17:27;25.10;42.50
67899;DHT22;54699;51.796;10.956;2022-08-03T00:19:53;25.10;42.60
67899;DHT22;54699;51.796;10.956;2022-08-03T00:22:21;25.10;42.60
67899;DHT22;54699;51.796;10.956;2022-08-03T00:24:48;25.10;42.60
67899;DHT22;54699;51.796;10.956;2022-08-03T00:27:14;25.10;42.70
67899;DHT22;54699;51.796;10.956;2022-08-03T00:29:41;25.10;42.70
67899;DHT22;54699;51.796;10.956;2022-08-03T00:32:08;25.10;42.80
67899;DHT22;54699;51.796;10.956;2022-08-03T00:34:34;25.10;42.80
67899;DHT22;54699;51.796;10.956;2022-08-03T00:37:01;25.10;42.70
67899;DHT22;54699;51.796;10.956;2022-08-03T00:39:29;25.10;42.80
67899;DHT22;54699;51.796;10.956;2022-08-03T00:41:55;25.10;42.80
67899;DHT22;54699;51.796;10.956;2022-08-03T00:44:22;25.10;43.00
67899;DHT22;54699;51.796;10.956;2022-08-03T00:46:49;25.10;42.90
67899;DHT22;54699;51.796;10.956;2022-08-03T00:49:15;25.10;42.90
67899;DHT22;54699;51.796;10.956;2022-08-03T00:51:42;25.10;42.90
67899;DHT22;54699;51.796;10.956;2022-08-03T00:54:09;25.10;43.00
67899;DHT22;54699;51.796;10.956;2022-08-03T00:56:37;25.10;42.80
67899;DHT22;54699;51.796;10.956;2022-08-03T00:59:04;25.10;42.90
67899;DHT22;54699;51.796;10.956;2022-08-03T01:01:30;25.10;43.00
67899;DHT22;54699;51.796;10.956;2022-08-03T01:03:57;25.10;43.00
67899;DHT22;54699;51.796;10.956;2022-08-03T01:06:24;25.00;42.90
67899;DHT22;54699;51.796;10.956;2022-08-03T01:09:00;25.10;43.10
67899;DHT22;54699;51.796;10.956;2022-08-03T01:11:35;25.00;43.10
67899;DHT22;54699;51.796;10.956;2022-08-03T01:14:10;25.00;43.00
67899;DHT22;54699;51.796;10.956;2022-08-03T01:16:42;25.00;43.10
67899;DHT22;54699;51.796;10.956;2022-08-03T01:19:19;25.00;43.10
67899;DHT22;54699;51.796;10.956;2022-08-03T01:22:03;25.10;43.20
67899;DHT22;54699;51.796;10.956;2022-08-03T01:24:43;25.00;43.00
67899;DHT22;54699;51.796;10.956;2022-08-03T01:27:20;25.00;43.10
67899;DHT22;54699;51.796;10.956;2022-08-03T01:29:54;25.00;43.10
67899;DHT22;54699;51.796;10.956;2022-08-03T01:32:27;25.00;43.10
67899;DHT22;54699;51.796;10.956;2022-08-03T01:35:02;25.00;43.20
67899;DHT22;54699;51.796;10.956;2022-08-03T01:37:34;25.00;43.10
67899;DHT22;54699;51.796;10.956;2022-08-03T01:40:05;25.00;43.20
67899;DHT22;54699;51.796;10.956;2022-08-03T01:42:34;25.00;43.10
67899;DHT22;54699;51.796;10.956;2022-08-03T01:45:04;25.00;43.20
67899;DHT22;54699;51.796;10.956;2022-08-03T01:47:34;25.00;43.10
67899;DHT22;54699;51.796;10.956;2022-08-03T01:50:02;25.00;43.10
67899;DHT22;54699;51.796;10.956;2022-08-03T01:52:31;25.00;43.00
67899;DHT22;54699;51.796;10.956;2022-08-03T01:54:58;25.00;43.00
67899;DHT22;54699;51.796;10.956;2022-08-03T01:57:28;25.00;43.00
67899;DHT22;54699;51.796;10.956;2022-08-03T01:59:56;25.00;43.00
67899;DHT22;54699;51.796;10.956;2022-08-03T02:02:27;25.00;43.00
67899;DHT22;54699;51.796;10.956;2022-08-03T02:04:55;25.00;43.00
67899;DHT22;54699;51.796;10.956;2022-08-03T02:07:24;25.00;43.10
67899;DHT22;54699;51.796;10.956;2022-08-03T02:09:54;25.00;43.10
67899;DHT22;54699;51.796;10.956;2022-08-03T02:12:24;25.00;43.00
67899;DHT22;54699;51.796;10.956;2022-08-03T02:14:53;25.00;43.00
67899;DHT22;54699;51.796;10.956;2022-08-03T02:17:22;25.00;43.00
67899;DHT22;54699;51.796;10.956;2022-08-03T02:19:52;25.00;43.00
67899;DHT22;54699;51.796;10.956;2022-08-03T02:22:21;24.90;43.00
67899;DHT22;54699;51.796;10.956;2022-08-03T02:24:49;25.00;43.20
67899;DHT22;54699;51.796;10.956;2022-08-03T02:27:17;24.90;43.10
67899;DHT22;54699;51.796;10.956;2022-08-03T02:29:47;24.90;43.10
67899;DHT22;54699;51.796;10.956;2022-08-03T02:32:19;25.00;43.10
67899;DHT22;54699;51.796;10.956;2022-08-03T02:34:49;25.00;43.10
67899;DHT22;54699;51.796;10.956;2022-08-03T02:37:19;24.90;42.90
67899;DHT22;54699;51.796;10.956;2022-08-03T02:39:50;24.90;42.80
67899;DHT22;54699;51.796;10.956;2022-08-03T02:42:23;24.90;42.90
67899;DHT22;54699;51.796;10.956;2022-08-03T02:44:50;24.90;43.00
67899;DHT22;54699;51.796;10.956;2022-08-03T02:47:20;24.90;43.10
67899;DHT22;54699;51.796;10.956;2022-08-03T02:49:48;25.00;43.00
67899;DHT22;54699;51.796;10.956;2022-08-03T02:52:16;24.90;43.00
67899;DHT22;54699;51.796;10.956;2022-08-03T02:54:46;24.90;43.10
67899;DHT22;54699;51.796;10.956;2022-08-03T02:57:15;24.90;42.90
67899;DHT22;54699;51.796;10.956;2022-08-03T02:59:43;24.90;42.90
67899;DHT22;54699;51.796;10.956;2022-08-03T03:02:11;24.90;42.80
67899;DHT22;54699;51.796;10.956;2022-08-03T03:04:41;24.90;42.80
67899;DHT22;54699;51.796;10.956;2022-08-03T03:07:08;24.90;42.90
67899;DHT22;54699;51.796;10.956;2022-08-03T03:09:37;24.90;42.90
67899;DHT22;54699;51.796;10.956;2022-08-03T03:12:06;24.90;43.00
67899;DHT22;54699;51.796;10.956;2022-08-03T03:14:34;24.90;43.00
67899;DHT22;54699;51.796;10.956;2022-08-03T03:17:02;24.90;43.00
67899;DHT22;54699;51.796;10.956;2022-08-03T03:19:29;24.90;42.80
67899;DHT22;54699;51.796;10.956;2022-08-03T03:21:57;24.90;43.00
67899;DHT22;54699;51.796;10.956;2022-08-03T03:24:27;24.90;42.90
67899;DHT22;54699;51.796;10.956;2022-08-03T03:26:55;24.90;42.90
67899;DHT22;54699;51.796;10.956;2022-08-03T03:29:23;24.90;42.90
67899;DHT22;54699;51.796;10.956;2022-08-03T03:31:50;24.90;43.00
67899;DHT22;54699;51.796;10.956;2022-08-03T03:34:18;24.90;43.00
67899;DHT22;54699;51.796;10.956;2022-08-03T03:36:45;24.90;43.00
67899;DHT22;54699;51.796;10.956;2022-08-03T03:39:11;24.90;43.00
67899;DHT22;54699;51.796;10.956;2022-08-03T03:41:38;24.90;43.10
67899;DHT22;54699;51.796;10.956;2022-08-03T03:44:05;24.90;43.10
67899;DHT22;54699;51.796;10.956;2022-08-03T03:46:33;24.90;43.10
67899;DHT22;54699;51.796;10.956;2022-08-03T03:49:00;24.90;43.10
67899;DHT22;54699;51.796;10.956;2022-08-03T03:51:26;24.90;43.10
67899;DHT22;54699;51.796;10.956;2022-08-03T03:53:54;24.90;43.10
67899;DHT22;54699;51.796;10.956;2022-08-03T03:56:21;24.90;43.10
67899;DHT22;54699;51.796;10.956;2022-08-03T03:58:48;24.90;43.10
67899;DHT22;54699;51.796;10.956;2022-08-03T04:01:15;24.90;43.20
67899;DHT22;54699;51.796;10.956;2022-08-03T04:03:43;24.90;43.30
67899;DHT22;54699;51.796;10.956;2022-08-03T04:06:10;24.90;43.20
67899;DHT22;54699;51.796;10.956;2022-08-03T04:08:55;24.90;43.20
67899;DHT22;54699;51.796;10.956;2022-08-03T04:11:40;24.90;43.30
67899;DHT22;54699;51.796;10.956;2022-08-03T04:14:13;24.90;43.40
67899;DHT22;54699;51.796;10.956;2022-08-03T04:16:45;24.90;43.30
67899;DHT22;54699;51.796;10.956;2022-08-03T04:19:18;24.90;43.40
67899;DHT22;54699;51.796;10.956;2022-08-03T04:21:48;24.90;43.30
67899;DHT22;54699;51.796;10.956;2022-08-03T04:24:17;24.90;43.40
67899;DHT22;54699;51.796;10.956;2022-08-03T04:26:45;24.90;43.40
67899;DHT22;54699;51.796;10.956;2022-08-03T04:29:14;24.90;43.50
67899;DHT22;54699;51.796;10.956;2022-08-03T04:31:42;24.90;43.60
67899;DHT22;54699;51.796;10.956;2022-08-03T04:34:11;24.90;43.60
67899;DHT22;54699;51.796;10.956;2022-08-03T04:36:43;24.90;43.60
67899;DHT22;54699;51.796;10.956;2022-08-03T04:39:13;24.90;43.70
67899;DHT22;54699;51.796;10.956;2022-08-03T04:41:43;24.90;43.70
67899;DHT22;54699;51.796;10.956;2022-08-03T04:44:11;24.80;43.10
67899;DHT22;54699;51.796;10.956;2022-08-03T04:46:39;24.70;42.70
67899;DHT22;54699;51.796;10.956;2022-08-03T04:49:08;24.60;42.30
67899;DHT22;54699;51.796;10.956;2022-08-03T04:51:36;24.60;41.40
67899;DHT22;54699;51.796;10.956;2022-08-03T04:54:06;24.60;41.90
67899;DHT22;54699;51.796;10.956;2022-08-03T04:56:38;24.60;41.30
67899;DHT22;54699;51.796;10.956;2022-08-03T04:59:05;24.60;40.90
67899;DHT22;54699;51.796;10.956;2022-08-03T05:01:31;24.60;41.00
67899;DHT22;54699;51.796;10.956;2022-08-03T05:03:58;24.60;41.10
67899;DHT22;54699;51.796;10.956;2022-08-03T05:06:25;24.60;40.80
67899;DHT22;54699;51.796;10.956;2022-08-03T05:08:51;24.50;40.40
67899;DHT22;54699;51.796;10.956;2022-08-03T05:11:20;24.60;40.50
67899;DHT22;54699;51.796;10.956;2022-08-03T05:13:47;24.60;40.20
67899;DHT22;54699;51.796;10.956;2022-08-03T05:16:14;24.50;40.10
67899;DHT22;54699;51.796;10.956;2022-08-03T05:18:41;24.60;40.10
67899;DHT22;54699;51.796;10.956;2022-08-03T05:21:08;24.50;39.90
67899;DHT22;54699;51.796;10.956;2022-08-03T05:23:36;24.50;40.00
67899;DHT22;54699;51.796;10.956;2022-08-03T05:26:03;24.60;39.40
67899;DHT22;54699;51.796;10.956;2022-08-03T05:28:31;24.60;39.60
67899;DHT22;54699;51.796;10.956;2022-08-03T05:30:58;24.60;39.70
67899;DHT22;54699;51.796;10.956;2022-08-03T05:33:24;24.60;39.70
67899;DHT22;54699;51.796;10.956;2022-08-03T05:35:51;24.50;39.20
67899;DHT22;54699;51.796;10.956;2022-08-03T05:38:17;24.50;39.50
67899;DHT22;54699;51.796;10.956;2022-08-03T05:40:44;24.50;39.60
67899;DHT22;54699;51.796;10.956;2022-08-03T05:43:11;24.60;39.40
67899;DHT22;54699;51.796;10.956;2022-08-03T05:45:39;24.60;39.50
67899;DHT22;54699;51.796;10.956;2022-08-03T05:48:05;24.60;39.70
67899;DHT22;54699;51.796;10.956;2022-08-03T05:50:32;24.50;39.80
67899;DHT22;54699;51.796;10.956;2022-08-03T05:53:00;24.60;39.90
67899;DHT22;54699;51.796;10.956;2022-08-03T05:55:27;24.60;40.00
67899;DHT22;54699;51.796;10.956;2022-08-03T05:57:54;24.60;39.80
67899;DHT22;54699;51.796;10.956;2022-08-03T06:00:21;24.60;40.00
67899;DHT22;54699;51.796;10.956;2022-08-03T06:02:49;24.60;39.90
67899;DHT22;54699;51.796;10.956;2022-08-03T06:05:16;24.60;39.80
67899;DHT22;54699;51.796;10.956;2022-08-03T06:07:43;24.60;39.70
67899;DHT22;54699;51.796;10.956;2022-08-03T06:10:10;24.60;39.70
67899;DHT22;54699;51.796;10.956;2022-08-03T06:12:37;24.70;39.80
67899;DHT22;54699;51.796;10.956;2022-08-03T06:15:05;24.80;39.80
67899;DHT22;54699;51.796;10.956;2022-08-03T06:17:33;24.80;39.70
67899;DHT22;54699;51.796;10.956;2022-08-03T06:20:01;24.80;39.70
67899;DHT22;54699;51.796;10.956;2022-08-03T06:22:28;24.90;39.80
67899;DHT22;54699;51.796;10.956;2022-08-03T06:24:54;24.90;39.80
67899;DHT22;54699;51.796;10.956;2022-08-03T06:27:22;24.90;39.80
67899;DHT22;54699;51.796;10.956;2022-08-03T06:29:49;24.90;39.80
67899;DHT22;54699;51.796;10.956;2022-08-03T06:32:15;24.90;39.90
67899;DHT22;54699;51.796;10.956;2022-08-03T06:34:42;25.00;40.00
67899;DHT22;54699;51.796;10.956;2022-08-03T06:37:10;25.00;39.80
67899;DHT22;54699;51.796;10.956;2022-08-03T06:39:37;25.10;40.00
67899;DHT22;54699;51.796;10.956;2022-08-03T06:42:03;25.10;39.90
67899;DHT22;54699;51.796;10.956;2022-08-03T06:44:30;25.10;39.90
67899;DHT22;54699;51.796;10.956;2022-08-03T06:46:57;25.10;39.90
67899;DHT22;54699;51.796;10.956;2022-08-03T06:49:23;25.20;40.00
67899;DHT22;54699;51.796;10.956;2022-08-03T06:51:50;25.20;40.00
67899;DHT22;54699;51.796;10.956;2022-08-03T06:54:19;25.20;40.00
67899;DHT22;54699;51.796;10.956;2022-08-03T06:56:48;25.30;40.00
67899;DHT22;54699;51.796;10.956;2022-08-03T06:59:15;25.20;40.00
67899;DHT22;54699;51.796;10.956;2022-08-03T07:01:41;25.30;39.90
67899;DHT22;54699;51.796;10.956;2022-08-03T07:04:08;25.30;40.00
67899;DHT22;54699;51.796;10.956;2022-08-03T07:06:36;25.30;39.90
67899;DHT22;54699;51.796;10.956;2022-08-03T07:09:02;25.40;39.80
67899;DHT22;54699;51.796;10.956;2022-08-03T07:11:31;25.50;40.00
67899;DHT22;54699;51.796;10.956;2022-08-03T07:13:57;25.40;39.90
67899;DHT22;54699;51.796;10.956;2022-08-03T07:16:24;25.50;39.90
67899;DHT22;54699;51.796;10.956;2022-08-03T07:18:50;25.50;39.90
67899;DHT22;54699;51.796;10.956;2022-08-03T07:21:17;25.50;39.80
67899;DHT22;54699;51.796;10.956;2022-08-03T07:23:44;25.60;39.90
67899;DHT22;54699;51.796;10.956;2022-08-03T07:26:10;25.60;39.90
67899;DHT22;54699;51.796;10.956;2022-08-03T07:28:38;25.60;39.90
67899;DHT22;54699;51.796;10.956;2022-08-03T07:31:05;25.60;39.90
67899;DHT22;54699;51.796;10.956;2022-08-03T07:33:32;25.60;39.80
67899;DHT22;54699;51.796;10.956;2022-08-03T07:35:58;25.60;40.00
67899;DHT22;54699;51.796;10.956;2022-08-03T07:38:25;25.70;40.10
67899;DHT22;54699;51.796;10.956;2022-08-03T07:40:53;25.70;40.00
67899;DHT22;54699;51.796;10.956;2022-08-03T07:43:19;25.70;41.10
67899;DHT22;54699;51.796;10.956;2022-08-03T07:45:48;25.70;40.10
67899;DHT22;54699;51.796;10.956;2022-08-03T07:48:14;25.70;40.10
67899;DHT22;54699;51.796;10.956;2022-08-03T07:50:41;25.80;40.20
67899;DHT22;54699;51.796;10.956;2022-08-03T07:53:08;25.70;40.00
67899;DHT22;54699;51.796;10.956;2022-08-03T07:55:34;25.80;40.10
67899;DHT22;54699;51.796;10.956;2022-08-03T07:58:02;25.80;40.10
67899;DHT22;54699;51.796;10.956;2022-08-03T08:00:29;25.90;40.10
67899;DHT22;54699;51.796;10.956;2022-08-03T08:02:58;25.80;40.10
67899;DHT22;54699;51.796;10.956;2022-08-03T08:05:25;25.90;40.40
67899;DHT22;54699;51.796;10.956;2022-08-03T08:07:52;25.90;40.30
67899;DHT22;54699;51.796;10.956;2022-08-03T08:10:18;25.90;40.50
67899;DHT22;54699;51.796;10.956;2022-08-03T08:12:45;25.90;40.40
67899;DHT22;54699;51.796;10.956;2022-08-03T08:15:12;25.90;40.20
67899;DHT22;54699;51.796;10.956;2022-08-03T08:17:42;26.00;40.20
67899;DHT22;54699;51.796;10.956;2022-08-03T08:20:14;26.00;40.30
67899;DHT22;54699;51.796;10.956;2022-08-03T08:22:42;26.00;40.20
67899;DHT22;54699;51.796;10.956;2022-08-03T08:25:09;26.00;40.10
67899;DHT22;54699;51.796;10.956;2022-08-03T08:27:40;26.00;40.10
67899;DHT22;54699;51.796;10.956;2022-08-03T08:30:07;26.00;40.10
67899;DHT22;54699;51.796;10.956;2022-08-03T08:32:35;26.00;40.10
67899;DHT22;54699;51.796;10.956;2022-08-03T08:35:02;26.00;40.30
67899;DHT22;54699;51.796;10.956;2022-08-03T08:37:30;26.00;40.30
67899;DHT22;54699;51.796;10.956;2022-08-03T08:39:57;25.90;40.30
67899;DHT22;54699;51.796;10.956;2022-08-03T08:42:24;26.00;40.30
67899;DHT22;54699;51.796;10.956;2022-08-03T08:44:51;25.90;40.30
67899;DHT22;54699;51.796;10.956;2022-08-03T08:47:18;26.00;40.30
67899;DHT22;54699;51.796;10.956;2022-08-03T08:49:49;26.00;40.30
67899;DHT22;54699;51.796;10.956;2022-08-03T08:52:18;25.90;40.50
67899;DHT22;54699;51.796;10.956;2022-08-03T08:54:50;25.90;40.30
67899;DHT22;54699;51.796;10.956;2022-08-03T08:57:20;25.90;40.30
67899;DHT22;54699;51.796;10.956;2022-08-03T08:59:50;25.90;40.30
67899;DHT22;54699;51.796;10.956;2022-08-03T09:02:19;25.90;40.30
67899;DHT22;54699;51.796;10.956;2022-08-03T09:04:45;25.90;40.20
67899;DHT22;54699;51.796;10.956;2022-08-03T09:07:13;26.00;40.20
67899;DHT22;54699;51.796;10.956;2022-08-03T09:09:39;25.90;39.90
67899;DHT22;54699;51.796;10.956;2022-08-03T09:12:08;26.00;40.10
67899;DHT22;54699;51.796;10.956;2022-08-03T09:14:34;26.00;40.10
67899;DHT22;54699;51.796;10.956;2022-08-03T09:17:02;26.00;39.90
67899;DHT22;54699;51.796;10.956;2022-08-03T09:19:30;26.00;39.60
67899;DHT22;54699;51.796;10.956;2022-08-03T09:22:07;26.00;39.60
67899;DHT22;54699;51.796;10.956;2022-08-03T09:24:36;26.00;39.70
67899;DHT22;54699;51.796;10.956;2022-08-03T09:27:04;26.00;39.40
67899;DHT22;54699;51.796;10.956;2022-08-03T09:29:37;26.10;39.60
67899;DHT22;54699;51.796;10.956;2022-08-03T09:32:04;26.10;39.60
67899;DHT22;54699;51.796;10.956;2022-08-03T09:34:31;26.10;39.50
67899;DHT22;54699;51.796;10.956;2022-08-03T09:36:57;26.10;39.50
67899;DHT22;54699;51.796;10.956;2022-08-03T09:39:25;26.10;39.60
67899;DHT22;54699;51.796;10.956;2022-08-03T09:42:06;26.00;39.70
67899;DHT22;54699;51.796;10.956;2022-08-03T09:44:34;26.00;39.80
67899;DHT22;54699;51.796;10.956;2022-08-03T09:47:03;26.00;40.10
67899;DHT22;54699;51.796;10.956;2022-08-03T09:49:31;26.00;40.10
67899;DHT22;54699;51.796;10.956;2022-08-03T09:52:00;26.00;40.00
67899;DHT22;54699;51.796;10.956;2022-08-03T09:54:36;26.00;40.00
67899;DHT22;54699;51.796;10.956;2022-08-03T09:57:03;26.10;40.40
67899;DHT22;54699;51.796;10.956;2022-08-03T09:59:31;26.00;40.20
67899;DHT22;54699;51.796;10.956;2022-08-03T10:01:58;26.00;40.10
67899;DHT22;54699;51.796;10.956;2022-08-03T10:04:27;26.00;40.30
67899;DHT22;54699;51.796;10.956;2022-08-03T10:07:04;26.10;40.60
67899;DHT22;54699;51.796;10.956;2022-08-03T10:09:33;26.10;40.50
67899;DHT22;54699;51.796;10.956;2022-08-03T10:12:07;26.10;40.40
67899;DHT22;54699;51.796;10.956;2022-08-03T10:14:35;26.20;40.50
67899;DHT22;54699;51.796;10.956;2022-08-03T10:17:02;26.20;40.50
67899;DHT22;54699;51.796;10.956;2022-08-03T10:19:31;26.20;40.30
67899;DHT22;54699;51.796;10.956;2022-08-03T10:22:00;26.30;40.30
67899;DHT22;54699;51.796;10.956;2022-08-03T10:24:29;26.30;40.30
67899;DHT22;54699;51.796;10.956;2022-08-03T10:27:00;26.30;40.20
67899;DHT22;54699;51.796;10.956;2022-08-03T10:29:28;26.40;40.20
67899;DHT22;54699;51.796;10.956;2022-08-03T10:31:59;26.40;40.20
67899;DHT22;54699;51.796;10.956;2022-08-03T10:34:36;26.40;40.10
67899;DHT22;54699;51.796;10.956;2022-08-03T10:37:08;26.30;40.20
67899;DHT22;54699;51.796;10.956;2022-08-03T10:39:36;26.30;40.50
67899;DHT22;54699;51.796;10.956;2022-08-03T10:42:18;26.30;41.10
67899;DHT22;54699;51.796;10.956;2022-08-03T10:44:49;26.30;40.60
67899;DHT22;54699;51.796;10.956;2022-08-03T10:47:21;26.30;40.80
67899;DHT22;54699;51.796;10.956;2022-08-03T10:49:49;26.30;41.20
67899;DHT22;54699;51.796;10.956;2022-08-03T10:52:17;26.40;41.10
67899;DHT22;54699;51.796;10.956;2022-08-03T10:54:44;26.40;41.00
67899;DHT22;54699;51.796;10.956;2022-08-03T10:57:43;26.40;41.10
67899;DHT22;54699;51.796;10.956;2022-08-03T11:00:13;26.30;41.00
67899;DHT22;54699;51.796;10.956;2022-08-03T11:05:37;26.40;41.00
67899;DHT22;54699;51.796;10.956;2022-08-03T11:08:21;26.40;41.00
67899;DHT22;54699;51.796;10.956;2022-08-03T11:10:53;26.40;41.20
67899;DHT22;54699;51.796;10.956;2022-08-03T11:13:21;26.50;41.10
67899;DHT22;54699;51.796;10.956;2022-08-03T11:15:50;26.50;41.10
67899;DHT22;54699;51.796;10.956;2022-08-03T11:18:18;26.50;41.50
67899;DHT22;54699;51.796;10.956;2022-08-03T11:20:47;26.50;41.50
67899;DHT22;54699;51.796;10.956;2022-08-03T11:23:17;26.50;41.40
67899;DHT22;54699;51.796;10.956;2022-08-03T11:28:33;26.60;41.60
67899;DHT22;54699;51.796;10.956;2022-08-03T11:34:03;26.60;41.50
67899;DHT22;54699;51.796;10.956;2022-08-03T11:36:32;26.60;41.30
67899;DHT22;54699;51.796;10.956;2022-08-03T11:39:37;26.60;41.20
67899;DHT22;54699;51.796;10.956;2022-08-03T11:45:06;26.80;41.00
67899;DHT22;54699;51.796;10.956;2022-08-03T11:47:35;26.80;40.80
67899;DHT22;54699;51.796;10.956;2022-08-03T11:50:03;26.90;40.70
67899;DHT22;54699;51.796;10.956;2022-08-03T11:52:36;26.80;40.80
67899;DHT22;54699;51.796;10.956;2022-08-03T11:55:08;26.80;41.00
67899;DHT22;54699;51.796;10.956;2022-08-03T11:57:36;26.80;41.00
67899;DHT22;54699;51.796;10.956;2022-08-03T12:00:17;26.80;40.90
67899;DHT22;54699;51.796;10.956;2022-08-03T12:02:52;26.80;41.50
67899;DHT22;54699;51.796;10.956;2022-08-03T12:05:20;26.80;41.40
67899;DHT22;54699;51.796;10.956;2022-08-03T12:07:59;26.80;41.40
67899;DHT22;54699;51.796;10.956;2022-08-03T12:10:25;26.80;41.10
67899;DHT22;54699;51.796;10.956;2022-08-03T12:12:53;26.80;41.20
67899;DHT22;54699;51.796;10.956;2022-08-03T12:15:23;26.80;41.30
67899;DHT22;54699;51.796;10.956;2022-08-03T12:17:51;26.90;41.40
67899;DHT22;54699;51.796;10.956;2022-08-03T12:20:20;26.90;41.20
67899;DHT22;54699;51.796;10.956;2022-08-03T12:22:47;26.90;41.20
67899;DHT22;54699;51.796;10.956;2022-08-03T12:25:20;27.00;41.30
67899;DHT22;54699;51.796;10.956;2022-08-03T12:27:48;27.00;41.40
67899;DHT22;54699;51.796;10.956;2022-08-03T12:30:15;27.00;41.30
67899;DHT22;54699;51.796;10.956;2022-08-03T12:32:42;27.00;41.30
67899;DHT22;54699;51.796;10.956;2022-08-03T12:35:09;27.00;41.50
67899;DHT22;54699;51.796;10.956;2022-08-03T12:37:47;27.10;41.00
67899;DHT22;54699;51.796;10.956;2022-08-03T12:40:14;27.20;41.10
67899;DHT22;54699;51.796;10.956;2022-08-03T12:42:42;27.20;40.90
67899;DHT22;54699;51.796;10.956;2022-08-03T12:45:18;27.20;40.80
67899;DHT22;54699;51.796;10.956;2022-08-03T12:47:53;27.20;40.80
67899;DHT22;54699;51.796;10.956;2022-08-03T12:50:27;27.20;41.00
67899;DHT22;54699;51.796;10.956;2022-08-03T12:52:55;27.10;41.10
67899;DHT22;54699;51.796;10.956;2022-08-03T12:55:24;27.10;41.30
67899;DHT22;54699;51.796;10.956;2022-08-03T12:57:59;27.00;41.50
67899;DHT22;54699;51.796;10.956;2022-08-03T13:00:26;27.00;41.80
67899;DHT22;54699;51.796;10.956;2022-08-03T13:02:58;27.00;41.70
67899;DHT22;54699;51.796;10.956;2022-08-03T13:05:26;27.00;41.80
67899;DHT22;54699;51.796;10.956;2022-08-03T13:07:53;27.00;41.70
67899;DHT22;54699;51.796;10.956;2022-08-03T13:10:27;27.00;41.70
67899;DHT22;54699;51.796;10.956;2022-08-03T13:12:54;26.90;41.60
67899;DHT22;54699;51.796;10.956;2022-08-03T13:15:24;26.90;41.60
67899;DHT22;54699;51.796;10.956;2022-08-03T13:17:52;26.90;41.80
67899;DHT22;54699;51.796;10.956;2022-08-03T13:20:19;26.90;41.90
67899;DHT22;54699;51.796;10.956;2022-08-03T13:22:46;26.90;42.00
67899;DHT22;54699;51.796;10.956;2022-08-03T13:25:14;26.90;41.90
67899;DHT22;54699;51.796;10.956;2022-08-03T13:27:40;26.90;42.00
67899;DHT22;54699;51.796;10.956;2022-08-03T13:30:07;26.80;42.00
67899;DHT22;54699;51.796;10.956;2022-08-03T13:32:36;26.90;42.00
67899;DHT22;54699;51.796;10.956;2022-08-03T13:35:04;26.90;42.10
67899;DHT22;54699;51.796;10.956;2022-08-03T13:37:31;26.90;43.00
67899;DHT22;54699;51.796;10.956;2022-08-03T13:39:59;26.90;42.30
67899;DHT22;54699;51.796;10.956;2022-08-03T13:42:26;26.90;42.30
67899;DHT22;54699;51.796;10.956;2022-08-03T13:44:54;26.90;42.50
67899;DHT22;54699;51.796;10.956;2022-08-03T13:47:21;26.90;42.50
67899;DHT22;54699;51.796;10.956;2022-08-03T13:49:49;27.00;42.60
67899;DHT22;54699;51.796;10.956;2022-08-03T13:52:17;27.00;42.70
67899;DHT22;54699;51.796;10.956;2022-08-03T13:54:44;27.00;42.80
67899;DHT22;54699;51.796;10.956;2022-08-03T13:57:10;27.00;42.90
67899;DHT22;54699;51.796;10.956;2022-08-03T13:59:37;27.00;44.00
67899;DHT22;54699;51.796;10.956;2022-08-03T14:02:04;27.10;43.10
67899;DHT22;54699;51.796;10.956;2022-08-03T14:04:30;27.10;43.20
67899;DHT22;54699;51.796;10.956;2022-08-03T14:06:58;27.10;43.30
67899;DHT22;54699;51.796;10.956;2022-08-03T14:09:25;27.10;43.30
67899;DHT22;54699;51.796;10.956;2022-08-03T14:11:52;27.10;43.40
67899;DHT22;54699;51.796;10.956;2022-08-03T14:14:19;27.10;43.50
67899;DHT22;54699;51.796;10.956;2022-08-03T14:16:45;27.10;43.70
67899;DHT22;54699;51.796;10.956;2022-08-03T14:19:12;27.10;43.70
67899;DHT22;54699;51.796;10.956;2022-08-03T14:21:40;27.10;43.80
67899;DHT22;54699;51.796;10.956;2022-08-03T14:24:08;27.10;43.90
67899;DHT22;54699;51.796;10.956;2022-08-03T14:26:34;27.10;43.80
67899;DHT22;54699;51.796;10.956;2022-08-03T14:29:01;27.00;43.90
67899;DHT22;54699;51.796;10.956;2022-08-03T14:31:29;27.10;44.10
67899;DHT22;54699;51.796;10.956;2022-08-03T14:33:55;27.10;44.10
67899;DHT22;54699;51.796;10.956;2022-08-03T14:36:22;27.10;44.10
67899;DHT22;54699;51.796;10.956;2022-08-03T14:38:49;27.10;44.10
67899;DHT22;54699;51.796;10.956;2022-08-03T14:41:17;27.10;44.10
67899;DHT22;54699;51.796;10.956;2022-08-03T14:43:44;27.10;44.20
67899;DHT22;54699;51.796;10.956;2022-08-03T14:46:10;27.10;44.20
67899;DHT22;54699;51.796;10.956;2022-08-03T14:48:37;27.10;44.20
67899;DHT22;54699;51.796;10.956;2022-08-03T14:51:04;27.10;44.20
67899;DHT22;54699;51.796;10.956;2022-08-03T14:53:30;27.10;44.20
67899;DHT22;54699;51.796;10.956;2022-08-03T14:55:57;27.10;44.30
67899;DHT22;54699;51.796;10.956;2022-08-03T14:58:25;27.10;44.30
67899;DHT22;54699;51.796;10.956;2022-08-03T15:00:52;27.10;44.30
67899;DHT22;54699;51.796;10.956;2022-08-03T15:03:21;27.10;44.30
67899;DHT22;54699;51.796;10.956;2022-08-03T15:05:48;27.10;44.40
67899;DHT22;54699;51.796;10.956;2022-08-03T15:08:16;27.10;44.40
67899;DHT22;54699;51.796;10.956;2022-08-03T15:10:42;27.10;44.40
67899;DHT22;54699;51.796;10.956;2022-08-03T15:13:09;27.10;44.50
67899;DHT22;54699;51.796;10.956;2022-08-03T15:15:37;27.10;44.40
67899;DHT22;54699;51.796;10.956;2022-08-03T15:18:04;27.10;44.50
67899;DHT22;54699;51.796;10.956;2022-08-03T15:20:30;27.10;44.60
67899;DHT22;54699;51.796;10.956;2022-08-03T15:22:57;27.10;45.60
67899;DHT22;54699;51.796;10.956;2022-08-03T15:25:24;27.10;44.70
67899;DHT22;54699;51.796;10.956;2022-08-03T15:27:51;27.10;44.70
67899;DHT22;54699;51.796;10.956;2022-08-03T15:30:17;27.10;45.00
67899;DHT22;54699;51.796;10.956;2022-08-03T15:32:45;27.10;45.00
67899;DHT22;54699;51.796;10.956;2022-08-03T15:35:12;27.10;45.00